createdAt,value
2022-09-05T00:09:19.403Z,1.00
2022-09-05T00:24:23.042Z,2.10
2022-09-05T00:31:07.158Z,0.70
2022-09-05T00:40:43.857Z,1.00
2022-09-05T00:51:21.827Z,1.10
2022-09-05T01:01:49.527Z,1.10
2022-09-05T01:12:07.343Z,1.50
2022-09-05T01:22:37.097Z,1.10
2022-09-05T01:32:58.754Z,0.90
2022-09-05T01:43:25.680Z,0.80
2022-09-05T01:53:43.726Z,0.90
2022-09-05T02:03:54.614Z,0.90
2022-09-05T02:14:08.957Z,0.50
2022-09-05T02:24:23.199Z,0.70
2022-09-05T02:34:39.197Z,0.70
2022-09-05T02:45:25.680Z,0.50
2022-09-05T02:57:39.948Z,0.90
2022-09-05T03:06:34.356Z,0.70
2022-09-05T03:17:06.733Z,0.40
2022-09-05T03:38:11.094Z,0.70
2022-09-05T03:48:37.966Z,0.60
2022-09-05T03:59:09.759Z,0.70
2022-09-05T04:09:43.302Z,0.40
2022-09-05T04:19:53.667Z,0.80
2022-09-05T04:30:34.835Z,0.60
2022-09-05T04:40:46.903Z,0.60
2022-09-05T04:51:11.445Z,0.60
2022-09-05T05:06:00.770Z,1.40
2022-09-05T05:17:23.889Z,1.20
2022-09-05T05:22:23.349Z,0.70
2022-09-05T05:32:45.195Z,0.90
2022-09-05T05:42:52.825Z,0.70
2022-09-05T05:53:31.961Z,0.70
2022-09-05T06:04:21.854Z,1.70
2022-09-05T06:15:11.498Z,0.60
2022-09-05T06:25:52.250Z,1.70
2022-09-05T06:36:08.216Z,0.50
2022-09-05T06:46:55.014Z,0.70
2022-09-05T06:57:14.725Z,0.90
2022-09-05T07:07:27.912Z,1.00
2022-09-05T07:18:08.917Z,1.00
2022-09-05T07:28:28.950Z,0.90
2022-09-05T07:38:52.329Z,0.60
2022-09-05T07:49:05.736Z,1.00
2022-09-05T07:59:14.330Z,1.10
2022-09-05T08:10:06.050Z,1.20
2022-09-05T08:20:08.957Z,1.70
2022-09-05T08:30:26.449Z,1.10
2022-09-05T08:40:37.301Z,0.50
2022-09-05T08:51:04.316Z,0.40
2022-09-05T09:01:19.210Z,0.50
2022-09-05T09:11:34.349Z,0.40
2022-09-05T09:21:52.791Z,0.80
2022-09-05T09:32:07.682Z,0.30
2022-09-05T09:42:34.263Z,0.40
2022-09-05T09:53:06.887Z,0.50
2022-09-05T10:10:32.817Z,0.70
2022-09-05T10:14:50.603Z,0.40
2022-09-05T10:25:20.260Z,0.70
2022-09-05T10:35:32.599Z,0.30
2022-09-05T10:45:49.679Z,0.30
2022-09-05T10:56:12.482Z,0.30
2022-09-05T11:06:24.862Z,0.30
2022-09-05T11:16:40.254Z,0.30
2022-09-05T11:27:23.229Z,0.40
2022-09-05T11:39:56.264Z,0.10
2022-09-05T11:48:20.890Z,0.40
2022-09-05T11:58:48.459Z,0.20
2022-09-05T12:09:02.532Z,0.30
2022-09-05T12:19:26.921Z,0.20
2022-09-05T12:29:45.558Z,0.20
2022-09-05T12:41:39.082Z,0.20
2022-09-05T12:50:33.330Z,0.20
2022-09-05T13:03:12.459Z,0.50
2022-09-05T13:14:47.882Z,0.50
2022-09-05T13:21:44.591Z,0.20
2022-09-05T13:38:03.339Z,0.20
2022-09-05T13:42:45.447Z,0.30
2022-09-05T13:52:57.230Z,0.70
2022-09-05T14:03:43.275Z,0.10
2022-09-05T14:14:11.245Z,0.20
2022-09-05T14:37:40.628Z,0.40
2022-09-05T14:46:00.377Z,0.50
2022-09-05T14:57:11.557Z,0.20
2022-09-05T15:06:38.126Z,0.90
2022-09-05T15:17:01.276Z,0.30
2022-09-05T15:27:16.894Z,0.50
2022-09-05T15:37:31.360Z,1.60
2022-09-05T15:47:39.582Z,0.20
2022-09-05T16:10:41.557Z,0.30
2022-09-05T16:23:16.885Z,0.70
2022-09-05T16:28:58.008Z,1.00
2022-09-05T16:39:08.925Z,0.20
2022-09-05T16:49:29.677Z,0.50
2022-09-05T16:59:47.795Z,0.40
2022-09-05T17:09:53.814Z,0.40
2022-09-05T17:20:07.070Z,0.40
2022-09-05T17:41:10.624Z,0.40
2022-09-05T17:51:38.355Z,0.40
2022-09-05T18:02:29.853Z,0.60
2022-09-05T18:13:13.458Z,0.70
2022-09-05T18:23:39.622Z,1.10
2022-09-05T18:34:38.195Z,1.30
2022-09-05T18:44:49.539Z,0.90
2022-09-05T18:55:30.161Z,0.80
2022-09-05T19:05:41.792Z,1.30
2022-09-05T19:16:03.669Z,1.00
2022-09-05T19:26:22.223Z,1.00
2022-09-05T19:36:55.591Z,1.00
2022-09-05T19:47:44.059Z,0.70
2022-09-05T19:57:25.659Z,0.90
2022-09-05T20:07:33.238Z,1.30
2022-09-05T20:17:43.145Z,0.70
2022-09-05T20:27:50.590Z,1.10
2022-09-05T20:43:15.901Z,2.30
2022-09-05T20:54:07.911Z,1.70
2022-09-05T20:58:55.663Z,1.30
2022-09-05T21:09:25.318Z,1.00
2022-09-05T21:19:33.822Z,0.90
2022-09-05T21:29:40.059Z,1.10
2022-09-05T21:39:59.436Z,1.30
2022-09-05T21:50:07.555Z,1.20
2022-09-05T22:00:20.531Z,1.90
2022-09-05T22:10:35.441Z,1.30
2022-09-05T22:21:31.961Z,1.50
2022-09-05T22:31:20.573Z,1.60
2022-09-05T22:41:30.191Z,1.70
2022-09-05T22:51:37.184Z,1.70
2022-09-05T23:01:43.812Z,2.50
2022-09-05T23:11:49.748Z,1.80
2022-09-05T23:21:55.647Z,2.20
2022-09-05T23:32:01.483Z,2.70
2022-09-05T23:42:07.542Z,3.60
2022-09-05T23:52:13.474Z,2.00
